sensor_id;sensor_type;location;lat;lon;timestamp;P1;durP1;ratioP1;P2;durP2;ratioP2
6424;SDS011;12193;42.642;23.384;2024-01-30T00:02:07;10.00;;;5.57;;
6424;SDS011;12193;42.642;23.384;2024-01-30T00:04:36;10.60;;;5.60;;
6424;SDS011;12193;42.642;23.384;2024-01-30T00:07:05;10.83;;;5.40;;
6424;SDS011;12193;42.642;23.384;2024-01-30T00:09:34;10.80;;;5.53;;
6424;SDS011;12193;42.642;23.384;2024-01-30T00:12:07;11.37;;;5.83;;
6424;SDS011;12193;42.642;23.384;2024-01-30T00:14:37;10.13;;;5.27;;
6424;SDS011;12193;42.642;23.384;2024-01-30T00:17:06;9.33;;;5.13;;
6424;SDS011;12193;42.642;23.384;2024-01-30T00:19:35;10.63;;;5.47;;
6424;SDS011;12193;42.642;23.384;2024-01-30T00:22:04;12.00;;;5.33;;
6424;SDS011;12193;42.642;23.384;2024-01-30T00:24:33;10.27;;;5.20;;
6424;SDS011;12193;42.642;23.384;2024-01-30T00:27:03;9.63;;;5.47;;
6424;SDS011;12193;42.642;23.384;2024-01-30T00:29:35;8.67;;;5.00;;
6424;SDS011;12193;42.642;23.384;2024-01-30T00:32:04;9.03;;;4.97;;
6424;SDS011;12193;42.642;23.384;2024-01-30T00:34:34;8.27;;;5.00;;
6424;SDS011;12193;42.642;23.384;2024-01-30T00:37:04;9.63;;;5.10;;
6424;SDS011;12193;42.642;23.384;2024-01-30T00:39:33;9.53;;;5.00;;
6424;SDS011;12193;42.642;23.384;2024-01-30T00:42:02;10.87;;;5.00;;
6424;SDS011;12193;42.642;23.384;2024-01-30T00:44:37;9.23;;;4.80;;
6424;SDS011;12193;42.642;23.384;2024-01-30T00:47:06;9.40;;;4.67;;
6424;SDS011;12193;42.642;23.384;2024-01-30T00:49:35;7.77;;;4.40;;
6424;SDS011;12193;42.642;23.384;2024-01-30T00:52:05;10.13;;;4.80;;
6424;SDS011;12193;42.642;23.384;2024-01-30T00:54:34;9.03;;;4.80;;
6424;SDS011;12193;42.642;23.384;2024-01-30T00:57:03;6.77;;;4.13;;
6424;SDS011;12193;42.642;23.384;2024-01-30T00:59:33;11.03;;;4.50;;
6424;SDS011;12193;42.642;23.384;2024-01-30T01:02:05;8.20;;;4.53;;
6424;SDS011;12193;42.642;23.384;2024-01-30T01:04:34;7.90;;;4.10;;
6424;SDS011;12193;42.642;23.384;2024-01-30T04:08:25;4.63;;;3.10;;
6424;SDS011;12193;42.642;23.384;2024-01-30T04:10:55;4.43;;;2.70;;
6424;SDS011;12193;42.642;23.384;2024-01-30T04:13:24;4.40;;;2.70;;
6424;SDS011;12193;42.642;23.384;2024-01-30T04:15:54;4.10;;;2.60;;
6424;SDS011;12193;42.642;23.384;2024-01-30T04:18:23;6.00;;;3.40;;
6424;SDS011;12193;42.642;23.384;2024-01-30T04:20:52;5.77;;;2.90;;
6424;SDS011;12193;42.642;23.384;2024-01-30T04:23:22;4.17;;;2.60;;
6424;SDS011;12193;42.642;23.384;2024-01-30T04:25:54;4.00;;;2.50;;
6424;SDS011;12193;42.642;23.384;2024-01-30T04:28:23;4.77;;;2.60;;
6424;SDS011;12193;42.642;23.384;2024-01-30T04:30:52;3.80;;;2.30;;
6424;SDS011;12193;42.642;23.384;2024-01-30T04:33:22;4.40;;;2.60;;
6424;SDS011;12193;42.642;23.384;2024-01-30T04:35:51;4.90;;;2.80;;
6424;SDS011;12193;42.642;23.384;2024-01-30T04:38:20;3.67;;;2.73;;
6424;SDS011;12193;42.642;23.384;2024-01-30T04:40:52;4.33;;;2.60;;
6424;SDS011;12193;42.642;23.384;2024-01-30T04:43:21;6.80;;;3.23;;
6424;SDS011;12193;42.642;23.384;2024-01-30T04:45:52;4.27;;;2.73;;
6424;SDS011;12193;42.642;23.384;2024-01-30T04:48:21;5.37;;;2.80;;
6424;SDS011;12193;42.642;23.384;2024-01-30T04:50:51;3.73;;;2.57;;
6424;SDS011;12193;42.642;23.384;2024-01-30T04:53:20;4.57;;;3.10;;
6424;SDS011;12193;42.642;23.384;2024-01-30T04:55:47;4.27;;;3.00;;
6424;SDS011;12193;42.642;23.384;2024-01-30T04:58:19;5.13;;;3.27;;
6424;SDS011;12193;42.642;23.384;2024-01-30T05:00:48;6.23;;;3.07;;
6424;SDS011;12193;42.642;23.384;2024-01-30T05:03:18;8.03;;;3.60;;
6424;SDS011;12193;42.642;23.384;2024-01-30T05:05:48;5.33;;;3.13;;
6424;SDS011;12193;42.642;23.384;2024-01-30T05:08:18;8.80;;;3.57;;
6424;SDS011;12193;42.642;23.384;2024-01-30T05:10:47;6.20;;;3.47;;
6424;SDS011;12193;42.642;23.384;2024-01-30T05:13:19;4.90;;;3.17;;
6424;SDS011;12193;42.642;23.384;2024-01-30T05:15:48;7.10;;;3.47;;
6424;SDS011;12193;42.642;23.384;2024-01-30T05:18:17;10.90;;;3.90;;
6424;SDS011;12193;42.642;23.384;2024-01-30T05:20:46;8.00;;;4.03;;
6424;SDS011;12193;42.642;23.384;2024-01-30T05:23:15;10.07;;;3.87;;
6424;SDS011;12193;42.642;23.384;2024-01-30T05:25:45;6.77;;;3.80;;
6424;SDS011;12193;42.642;23.384;2024-01-30T05:28:14;7.87;;;4.37;;
6424;SDS011;12193;42.642;23.384;2024-01-30T05:30:45;13.47;;;4.43;;
6424;SDS011;12193;42.642;23.384;2024-01-30T05:33:15;13.07;;;4.03;;
6424;SDS011;12193;42.642;23.384;2024-01-30T05:35:44;9.50;;;3.97;;
6424;SDS011;12193;42.642;23.384;2024-01-30T05:38:15;8.23;;;4.47;;
6424;SDS011;12193;42.642;23.384;2024-01-30T05:40:45;15.50;;;5.03;;
6424;SDS011;12193;42.642;23.384;2024-01-30T05:43:14;22.40;;;5.10;;
6424;SDS011;12193;42.642;23.384;2024-01-30T05:45:46;12.30;;;4.33;;
6424;SDS011;12193;42.642;23.384;2024-01-30T05:48:16;10.20;;;4.50;;
6424;SDS011;12193;42.642;23.384;2024-01-30T05:50:45;11.10;;;4.60;;
6424;SDS011;12193;42.642;23.384;2024-01-30T05:53:15;9.13;;;3.30;;
6424;SDS011;12193;42.642;23.384;2024-01-30T05:55:44;9.97;;;4.47;;
6424;SDS011;12193;42.642;23.384;2024-01-30T05:58:13;7.90;;;4.20;;
6424;SDS011;12193;42.642;23.384;2024-01-30T06:00:42;7.13;;;4.23;;
6424;SDS011;12193;42.642;23.384;2024-01-30T06:03:14;7.60;;;3.67;;
6424;SDS011;12193;42.642;23.384;2024-01-30T06:05:43;7.40;;;3.90;;
6424;SDS011;12193;42.642;23.384;2024-01-30T06:08:13;7.03;;;3.93;;
6424;SDS011;12193;42.642;23.384;2024-01-30T06:10:42;7.53;;;4.10;;
6424;SDS011;12193;42.642;23.384;2024-01-30T06:13:11;6.33;;;3.53;;
6424;SDS011;12193;42.642;23.384;2024-01-30T06:15:40;7.50;;;4.17;;
6424;SDS011;12193;42.642;23.384;2024-01-30T06:18:10;8.93;;;4.20;;
6424;SDS011;12193;42.642;23.384;2024-01-30T06:20:42;6.67;;;3.97;;
6424;SDS011;12193;42.642;23.384;2024-01-30T06:23:11;7.63;;;4.00;;
6424;SDS011;12193;42.642;23.384;2024-01-30T06:25:40;3.90;;;2.87;;
6424;SDS011;12193;42.642;23.384;2024-01-30T06:28:09;12.80;;;4.50;;
6424;SDS011;12193;42.642;23.384;2024-01-30T06:30:39;6.43;;;3.40;;
6424;SDS011;12193;42.642;23.384;2024-01-30T06:33:08;6.53;;;3.20;;
6424;SDS011;12193;42.642;23.384;2024-01-30T06:35:37;3.83;;;2.10;;
6424;SDS011;12193;42.642;23.384;2024-01-30T06:38:09;8.73;;;3.00;;
6424;SDS011;12193;42.642;23.384;2024-01-30T06:40:39;4.77;;;2.40;;
6424;SDS011;12193;42.642;23.384;2024-01-30T06:43:08;5.03;;;2.60;;
6424;SDS011;12193;42.642;23.384;2024-01-30T06:45:38;4.23;;;2.50;;
6424;SDS011;12193;42.642;23.384;2024-01-30T06:48:08;4.53;;;2.33;;
6424;SDS011;12193;42.642;23.384;2024-01-30T06:50:37;5.70;;;2.37;;
6424;SDS011;12193;42.642;23.384;2024-01-30T06:53:09;6.57;;;3.10;;
6424;SDS011;12193;42.642;23.384;2024-01-30T06:55:38;3.43;;;2.43;;
6424;SDS011;12193;42.642;23.384;2024-01-30T06:58:07;5.30;;;2.97;;
6424;SDS011;12193;42.642;23.384;2024-01-30T07:00:36;5.40;;;2.80;;
6424;SDS011;12193;42.642;23.384;2024-01-30T07:03:06;5.93;;;2.90;;
6424;SDS011;12193;42.642;23.384;2024-01-30T07:05:35;4.73;;;2.83;;
6424;SDS011;12193;42.642;23.384;2024-01-30T07:08:05;7.87;;;3.03;;
6424;SDS011;12193;42.642;23.384;2024-01-30T07:10:37;7.57;;;2.97;;
6424;SDS011;12193;42.642;23.384;2024-01-30T07:13:06;4.73;;;2.97;;
6424;SDS011;12193;42.642;23.384;2024-01-30T07:15:36;5.00;;;2.83;;
6424;SDS011;12193;42.642;23.384;2024-01-30T07:18:05;10.90;;;2.90;;
6424;SDS011;12193;42.642;23.384;2024-01-30T07:20:35;4.50;;;2.30;;
6424;SDS011;12193;42.642;23.384;2024-01-30T07:23:08;3.97;;;2.30;;
6424;SDS011;12193;42.642;23.384;2024-01-30T07:25:42;4.93;;;2.37;;
6424;SDS011;12193;42.642;23.384;2024-01-30T07:28:12;4.17;;;2.60;;
6424;SDS011;12193;42.642;23.384;2024-01-30T07:30:42;5.23;;;2.93;;
6424;SDS011;12193;42.642;23.384;2024-01-30T07:33:11;5.07;;;2.73;;
6424;SDS011;12193;42.642;23.384;2024-01-30T07:35:41;3.77;;;2.60;;
6424;SDS011;12193;42.642;23.384;2024-01-30T07:38:10;7.23;;;2.53;;
6424;SDS011;12193;42.642;23.384;2024-01-30T07:40:41;5.37;;;2.63;;
6424;SDS011;12193;42.642;23.384;2024-01-30T07:43:11;5.90;;;2.60;;
6424;SDS011;12193;42.642;23.384;2024-01-30T07:45:40;5.40;;;2.80;;
6424;SDS011;12193;42.642;23.384;2024-01-30T07:48:09;6.57;;;2.60;;
6424;SDS011;12193;42.642;23.384;2024-01-30T07:50:39;3.93;;;2.80;;
6424;SDS011;12193;42.642;23.384;2024-01-30T07:53:09;4.67;;;3.00;;
6424;SDS011;12193;42.642;23.384;2024-01-30T07:55:38;5.07;;;2.87;;
6424;SDS011;12193;42.642;23.384;2024-01-30T07:58:12;4.97;;;3.07;;
6424;SDS011;12193;42.642;23.384;2024-01-30T08:00:41;6.50;;;3.43;;
6424;SDS011;12193;42.642;23.384;2024-01-30T08:03:10;4.37;;;2.70;;
6424;SDS011;12193;42.642;23.384;2024-01-30T08:05:42;5.43;;;3.13;;
6424;SDS011;12193;42.642;23.384;2024-01-30T08:08:11;5.27;;;3.00;;
6424;SDS011;12193;42.642;23.384;2024-01-30T08:10:40;4.17;;;2.70;;
6424;SDS011;12193;42.642;23.384;2024-01-30T08:13:12;5.17;;;3.20;;
6424;SDS011;12193;42.642;23.384;2024-01-30T08:15:41;6.40;;;3.20;;
6424;SDS011;12193;42.642;23.384;2024-01-30T08:18:11;5.43;;;3.20;;
6424;SDS011;12193;42.642;23.384;2024-01-30T08:20:40;8.13;;;3.60;;
6424;SDS011;12193;42.642;23.384;2024-01-30T08:23:09;5.50;;;3.37;;
6424;SDS011;12193;42.642;23.384;2024-01-30T08:25:39;7.33;;;3.97;;
6424;SDS011;12193;42.642;23.384;2024-01-30T08:28:08;10.20;;;3.60;;
6424;SDS011;12193;42.642;23.384;2024-01-30T08:30:40;6.03;;;3.80;;
6424;SDS011;12193;42.642;23.384;2024-01-30T08:33:09;7.27;;;3.80;;
6424;SDS011;12193;42.642;23.384;2024-01-30T08:35:38;7.43;;;4.83;;
6424;SDS011;12193;42.642;23.384;2024-01-30T08:38:07;9.50;;;3.77;;
6424;SDS011;12193;42.642;23.384;2024-01-30T08:40:38;7.10;;;4.13;;
6424;SDS011;12193;42.642;23.384;2024-01-30T08:43:07;7.20;;;3.90;;
6424;SDS011;12193;42.642;23.384;2024-01-30T08:45:36;6.10;;;4.20;;
6424;SDS011;12193;42.642;23.384;2024-01-30T08:48:08;8.73;;;4.10;;
6424;SDS011;12193;42.642;23.384;2024-01-30T08:50:38;7.37;;;3.87;;
6424;SDS011;12193;42.642;23.384;2024-01-30T08:53:07;7.73;;;3.70;;
6424;SDS011;12193;42.642;23.384;2024-01-30T08:55:36;9.67;;;4.07;;
6424;SDS011;12193;42.642;23.384;2024-01-30T08:58:05;9.53;;;3.40;;
6424;SDS011;12193;42.642;23.384;2024-01-30T09:00:35;5.23;;;3.23;;
6424;SDS011;12193;42.642;23.384;2024-01-30T09:03:04;7.07;;;3.77;;
6424;SDS011;12193;42.642;23.384;2024-01-30T09:05:36;11.57;;;3.40;;
6424;SDS011;12193;42.642;23.384;2024-01-30T09:08:05;6.27;;;3.47;;
6424;SDS011;12193;42.642;23.384;2024-01-30T09:10:35;5.37;;;3.30;;
6424;SDS011;12193;42.642;23.384;2024-01-30T09:13:04;13.20;;;3.77;;
6424;SDS011;12193;42.642;23.384;2024-01-30T09:15:33;5.90;;;3.20;;
6424;SDS011;12193;42.642;23.384;2024-01-30T09:18:02;6.93;;;3.77;;
6424;SDS011;12193;42.642;23.384;2024-01-30T09:20:32;8.47;;;4.10;;
6424;SDS011;12193;42.642;23.384;2024-01-30T09:23:04;5.37;;;3.40;;
6424;SDS011;12193;42.642;23.384;2024-01-30T09:25:33;7.20;;;3.23;;
6424;SDS011;12193;42.642;23.384;2024-01-30T09:28:03;7.47;;;3.63;;
6424;SDS011;12193;42.642;23.384;2024-01-30T09:30:33;7.17;;;3.53;;
6424;SDS011;12193;42.642;23.384;2024-01-30T09:33:02;9.97;;;3.70;;
6424;SDS011;12193;42.642;23.384;2024-01-30T09:35:32;9.30;;;4.10;;
6424;SDS011;12193;42.642;23.384;2024-01-30T09:38:05;8.60;;;3.80;;
6424;SDS011;12193;42.642;23.384;2024-01-30T09:40:34;10.37;;;4.23;;
6424;SDS011;12193;42.642;23.384;2024-01-30T09:43:03;8.53;;;4.03;;
6424;SDS011;12193;42.642;23.384;2024-01-30T09:45:33;8.47;;;4.57;;
6424;SDS011;12193;42.642;23.384;2024-01-30T09:48:04;6.40;;;3.90;;
6424;SDS011;12193;42.642;23.384;2024-01-30T09:50:34;12.53;;;4.27;;
6424;SDS011;12193;42.642;23.384;2024-01-30T09:53:07;7.03;;;3.97;;
6424;SDS011;12193;42.642;23.384;2024-01-30T09:55:37;7.93;;;3.87;;
6424;SDS011;12193;42.642;23.384;2024-01-30T09:58:06;6.43;;;3.73;;
6424;SDS011;12193;42.642;23.384;2024-01-30T10:00:36;11.30;;;4.10;;
6424;SDS011;12193;42.642;23.384;2024-01-30T10:03:05;5.17;;;3.20;;
6424;SDS011;12193;42.642;23.384;2024-01-30T10:05:34;7.80;;;3.53;;
6424;SDS011;12193;42.642;23.384;2024-01-30T10:08:08;6.10;;;3.47;;
6424;SDS011;12193;42.642;23.384;2024-01-30T10:10:37;6.03;;;3.27;;
6424;SDS011;12193;42.642;23.384;2024-01-30T10:13:06;7.70;;;3.33;;
6424;SDS011;12193;42.642;23.384;2024-01-30T10:15:36;6.73;;;3.73;;
6424;SDS011;12193;42.642;23.384;2024-01-30T10:18:08;6.80;;;3.33;;
6424;SDS011;12193;42.642;23.384;2024-01-30T10:20:37;6.00;;;3.57;;
6424;SDS011;12193;42.642;23.384;2024-01-30T10:23:09;6.97;;;3.80;;
6424;SDS011;12193;42.642;23.384;2024-01-30T10:25:38;6.17;;;3.60;;
6424;SDS011;12193;42.642;23.384;2024-01-30T10:28:07;6.50;;;3.50;;
6424;SDS011;12193;42.642;23.384;2024-01-30T10:30:36;5.23;;;3.23;;
6424;SDS011;12193;42.642;23.384;2024-01-30T10:33:06;4.83;;;3.20;;
6424;SDS011;12193;42.642;23.384;2024-01-30T10:35:35;5.80;;;3.07;;
6424;SDS011;12193;42.642;23.384;2024-01-30T10:40:52;11.17;;;3.40;;
6424;SDS011;12193;42.642;23.384;2024-01-30T10:43:26;6.33;;;3.30;;
6424;SDS011;12193;42.642;23.384;2024-01-30T10:46:01;5.13;;;3.00;;
6424;SDS011;12193;42.642;23.384;2024-01-30T10:48:36;8.23;;;3.70;;
6424;SDS011;12193;42.642;23.384;2024-01-30T10:51:11;7.73;;;3.27;;
6424;SDS011;12193;42.642;23.384;2024-01-30T10:53:44;6.40;;;3.07;;
6424;SDS011;12193;42.642;23.384;2024-01-30T10:56:15;4.57;;;2.73;;
6424;SDS011;12193;42.642;23.384;2024-01-30T10:58:45;6.87;;;3.10;;
6424;SDS011;12193;42.642;23.384;2024-01-30T11:01:14;7.30;;;3.00;;
6424;SDS011;12193;42.642;23.384;2024-01-30T11:03:45;6.53;;;2.93;;
6424;SDS011;12193;42.642;23.384;2024-01-30T11:06:15;4.90;;;3.07;;
6424;SDS011;12193;42.642;23.384;2024-01-30T11:08:47;7.80;;;3.70;;
6424;SDS011;12193;42.642;23.384;2024-01-30T11:11:30;4.60;;;3.00;;
6424;SDS011;12193;42.642;23.384;2024-01-30T11:14:00;5.73;;;3.20;;
6424;SDS011;12193;42.642;23.384;2024-01-30T11:16:31;5.30;;;2.80;;
6424;SDS011;12193;42.642;23.384;2024-01-30T11:19:01;5.37;;;2.90;;
6424;SDS011;12193;42.642;23.384;2024-01-30T11:21:30;4.83;;;2.80;;
6424;SDS011;12193;42.642;23.384;2024-01-30T11:24:02;5.40;;;2.83;;
6424;SDS011;12193;42.642;23.384;2024-01-30T11:26:32;4.73;;;2.77;;
6424;SDS011;12193;42.642;23.384;2024-01-30T11:29:02;4.73;;;2.90;;
6424;SDS011;12193;42.642;23.384;2024-01-30T11:31:32;5.70;;;3.10;;
6424;SDS011;12193;42.642;23.384;2024-01-30T11:34:02;4.33;;;2.70;;
6424;SDS011;12193;42.642;23.384;2024-01-30T11:36:31;10.77;;;3.90;;
6424;SDS011;12193;42.642;23.384;2024-01-30T11:39:05;6.50;;;2.90;;
6424;SDS011;12193;42.642;23.384;2024-01-30T11:41:36;7.77;;;3.57;;
6424;SDS011;12193;42.642;23.384;2024-01-30T11:44:07;3.90;;;2.80;;
6424;SDS011;12193;42.642;23.384;2024-01-30T11:46:36;5.40;;;2.97;;
6424;SDS011;12193;42.642;23.384;2024-01-30T11:49:05;5.43;;;3.10;;
6424;SDS011;12193;42.642;23.384;2024-01-30T11:51:35;6.90;;;3.03;;
6424;SDS011;12193;42.642;23.384;2024-01-30T11:54:07;7.37;;;3.30;;
6424;SDS011;12193;42.642;23.384;2024-01-30T11:56:36;26.77;;;9.63;;
6424;SDS011;12193;42.642;23.384;2024-01-30T11:59:06;6.40;;;3.83;;
6424;SDS011;12193;42.642;23.384;2024-01-30T12:01:36;6.63;;;3.00;;
6424;SDS011;12193;42.642;23.384;2024-01-30T12:04:05;8.30;;;3.40;;
6424;SDS011;12193;42.642;23.384;2024-01-30T12:06:37;6.23;;;3.20;;
6424;SDS011;12193;42.642;23.384;2024-01-30T12:09:08;6.10;;;3.67;;
6424;SDS011;12193;42.642;23.384;2024-01-30T12:11:45;5.13;;;3.00;;
6424;SDS011;12193;42.642;23.384;2024-01-30T12:14:15;5.47;;;3.00;;
6424;SDS011;12193;42.642;23.384;2024-01-30T12:16:48;5.40;;;3.30;;
6424;SDS011;12193;42.642;23.384;2024-01-30T12:19:21;5.27;;;3.13;;
6424;SDS011;12193;42.642;23.384;2024-01-30T12:21:54;4.80;;;2.83;;
6424;SDS011;12193;42.642;23.384;2024-01-30T12:24:27;4.93;;;3.10;;
6424;SDS011;12193;42.642;23.384;2024-01-30T12:26:57;4.33;;;2.47;;
6424;SDS011;12193;42.642;23.384;2024-01-30T12:29:27;5.87;;;3.00;;
6424;SDS011;12193;42.642;23.384;2024-01-30T12:31:56;5.37;;;3.43;;
6424;SDS011;12193;42.642;23.384;2024-01-30T12:34:25;8.20;;;3.67;;
6424;SDS011;12193;42.642;23.384;2024-01-30T12:36:55;6.13;;;3.10;;
6424;SDS011;12193;42.642;23.384;2024-01-30T12:39:26;4.90;;;2.97;;
6424;SDS011;12193;42.642;23.384;2024-01-30T12:41:56;6.07;;;3.53;;
6424;SDS011;12193;42.642;23.384;2024-01-30T12:44:25;6.53;;;3.10;;
6424;SDS011;12193;42.642;23.384;2024-01-30T12:46:55;6.43;;;3.20;;
6424;SDS011;12193;42.642;23.384;2024-01-30T12:49:24;6.40;;;3.40;;
6424;SDS011;12193;42.642;23.384;2024-01-30T12:51:53;7.87;;;3.83;;
6424;SDS011;12193;42.642;23.384;2024-01-30T12:54:23;9.30;;;3.30;;
6424;SDS011;12193;42.642;23.384;2024-01-30T12:56:55;6.40;;;3.40;;
6424;SDS011;12193;42.642;23.384;2024-01-30T12:59:24;4.77;;;3.20;;
6424;SDS011;12193;42.642;23.384;2024-01-30T13:01:54;5.57;;;3.30;;
6424;SDS011;12193;42.642;23.384;2024-01-30T13:04:23;5.43;;;3.00;;
6424;SDS011;12193;42.642;23.384;2024-01-30T13:06:52;6.87;;;3.80;;
6424;SDS011;12193;42.642;23.384;2024-01-30T13:09:22;5.87;;;3.60;;
6424;SDS011;12193;42.642;23.384;2024-01-30T13:11:51;9.40;;;3.67;;
6424;SDS011;12193;42.642;23.384;2024-01-30T13:14:23;7.63;;;3.90;;
6424;SDS011;12193;42.642;23.384;2024-01-30T13:16:53;6.33;;;3.50;;
6424;SDS011;12193;42.642;23.384;2024-01-30T13:19:22;6.43;;;3.50;;
6424;SDS011;12193;42.642;23.384;2024-01-30T13:21:51;6.67;;;3.70;;
6424;SDS011;12193;42.642;23.384;2024-01-30T13:24:20;7.07;;;3.43;;
6424;SDS011;12193;42.642;23.384;2024-01-30T13:26:50;4.53;;;3.33;;
6424;SDS011;12193;42.642;23.384;2024-01-30T13:29:19;9.40;;;3.63;;
6424;SDS011;12193;42.642;23.384;2024-01-30T13:31:51;9.70;;;3.50;;
6424;SDS011;12193;42.642;23.384;2024-01-30T13:34:20;8.07;;;3.57;;
6424;SDS011;12193;42.642;23.384;2024-01-30T13:36:49;9.97;;;3.43;;
6424;SDS011;12193;42.642;23.384;2024-01-30T13:39:18;5.90;;;3.50;;
6424;SDS011;12193;42.642;23.384;2024-01-30T13:41:48;9.80;;;3.47;;
6424;SDS011;12193;42.642;23.384;2024-01-30T13:44:17;10.97;;;3.70;;
6424;SDS011;12193;42.642;23.384;2024-01-30T13:46:46;8.63;;;3.27;;
6424;SDS011;12193;42.642;23.384;2024-01-30T13:49:18;6.40;;;3.67;;
6424;SDS011;12193;42.642;23.384;2024-01-30T13:51:48;6.73;;;3.40;;
6424;SDS011;12193;42.642;23.384;2024-01-30T13:54:17;8.53;;;3.83;;
6424;SDS011;12193;42.642;23.384;2024-01-30T13:56:46;8.80;;;3.50;;
6424;SDS011;12193;42.642;23.384;2024-01-30T13:59:15;9.63;;;3.80;;
6424;SDS011;12193;42.642;23.384;2024-01-30T14:01:49;7.87;;;3.63;;
6424;SDS011;12193;42.642;23.384;2024-01-30T14:04:21;8.00;;;4.23;;
6424;SDS011;12193;42.642;23.384;2024-01-30T14:06:50;11.13;;;4.30;;
6424;SDS011;12193;42.642;23.384;2024-01-30T14:09:20;12.47;;;4.00;;
6424;SDS011;12193;42.642;23.384;2024-01-30T14:11:49;7.87;;;3.97;;
6424;SDS011;12193;42.642;23.384;2024-01-30T14:14:19;9.70;;;4.10;;
6424;SDS011;12193;42.642;23.384;2024-01-30T14:16:48;7.83;;;4.33;;
6424;SDS011;12193;42.642;23.384;2024-01-30T14:19:17;7.20;;;4.20;;
6424;SDS011;12193;42.642;23.384;2024-01-30T14:21:49;8.67;;;3.83;;
6424;SDS011;12193;42.642;23.384;2024-01-30T14:24:18;6.33;;;3.73;;
6424;SDS011;12193;42.642;23.384;2024-01-30T14:26:47;5.97;;;3.60;;
6424;SDS011;12193;42.642;23.384;2024-01-30T14:29:17;7.27;;;3.63;;
6424;SDS011;12193;42.642;23.384;2024-01-30T14:31:46;7.70;;;3.70;;
6424;SDS011;12193;42.642;23.384;2024-01-30T14:34:15;7.87;;;4.40;;
6424;SDS011;12193;42.642;23.384;2024-01-30T14:36:44;7.87;;;4.03;;
6424;SDS011;12193;42.642;23.384;2024-01-30T14:39:16;6.47;;;3.60;;
6424;SDS011;12193;42.642;23.384;2024-01-30T14:41:46;6.73;;;3.53;;
6424;SDS011;12193;42.642;23.384;2024-01-30T14:44:15;9.33;;;4.00;;
6424;SDS011;12193;42.642;23.384;2024-01-30T14:46:44;5.77;;;3.60;;
6424;SDS011;12193;42.642;23.384;2024-01-30T14:49:13;6.83;;;3.77;;
6424;SDS011;12193;42.642;23.384;2024-01-30T14:51:42;7.73;;;3.80;;
6424;SDS011;12193;42.642;23.384;2024-01-30T14:54:12;5.87;;;3.60;;
6424;SDS011;12193;42.642;23.384;2024-01-30T14:56:44;7.90;;;3.57;;
6424;SDS011;12193;42.642;23.384;2024-01-30T14:59:14;9.70;;;3.83;;
6424;SDS011;12193;42.642;23.384;2024-01-30T15:01:43;9.03;;;3.70;;
6424;SDS011;12193;42.642;23.384;2024-01-30T15:04:13;8.33;;;3.90;;
6424;SDS011;12193;42.642;23.384;2024-01-30T15:06:43;12.07;;;4.03;;
6424;SDS011;12193;42.642;23.384;2024-01-30T15:09:16;7.07;;;4.03;;
6424;SDS011;12193;42.642;23.384;2024-01-30T15:11:48;6.27;;;4.10;;
6424;SDS011;12193;42.642;23.384;2024-01-30T15:14:17;8.13;;;3.90;;
6424;SDS011;12193;42.642;23.384;2024-01-30T15:16:47;10.27;;;3.63;;
6424;SDS011;12193;42.642;23.384;2024-01-30T15:19:16;9.70;;;4.10;;
6424;SDS011;12193;42.642;23.384;2024-01-30T15:21:45;18.03;;;4.70;;
6424;SDS011;12193;42.642;23.384;2024-01-30T15:24:17;7.50;;;4.27;;
6424;SDS011;12193;42.642;23.384;2024-01-30T15:26:50;10.33;;;4.37;;
6424;SDS011;12193;42.642;23.384;2024-01-30T15:29:20;8.53;;;4.17;;
6424;SDS011;12193;42.642;23.384;2024-01-30T15:31:50;7.60;;;4.00;;
6424;SDS011;12193;42.642;23.384;2024-01-30T15:34:19;9.00;;;4.03;;
6424;SDS011;12193;42.642;23.384;2024-01-30T15:36:48;9.53;;;4.23;;
6424;SDS011;12193;42.642;23.384;2024-01-30T15:39:20;11.73;;;3.90;;
6424;SDS011;12193;42.642;23.384;2024-01-30T15:41:49;9.13;;;4.20;;
6424;SDS011;12193;42.642;23.384;2024-01-30T15:44:19;9.20;;;4.60;;
6424;SDS011;12193;42.642;23.384;2024-01-30T15:46:48;8.23;;;4.33;;
6424;SDS011;12193;42.642;23.384;2024-01-30T15:49:17;11.30;;;4.80;;
6424;SDS011;12193;42.642;23.384;2024-01-30T15:51:46;7.57;;;4.20;;
6424;SDS011;12193;42.642;23.384;2024-01-30T15:54:16;12.77;;;4.60;;
6424;SDS011;12193;42.642;23.384;2024-01-30T15:56:48;12.97;;;4.90;;
6424;SDS011;12193;42.642;23.384;2024-01-30T15:59:18;12.03;;;4.50;;
6424;SDS011;12193;42.642;23.384;2024-01-30T16:01:47;12.17;;;4.33;;
6424;SDS011;12193;42.642;23.384;2024-01-30T16:04:16;16.60;;;4.83;;
6424;SDS011;12193;42.642;23.384;2024-01-30T16:06:47;9.70;;;4.20;;
6424;SDS011;12193;42.642;23.384;2024-01-30T16:09:16;9.57;;;4.43;;
6424;SDS011;12193;42.642;23.384;2024-01-30T16:11:45;9.27;;;4.73;;
6424;SDS011;12193;42.642;23.384;2024-01-30T16:14:17;14.30;;;4.97;;
6424;SDS011;12193;42.642;23.384;2024-01-30T16:16:46;9.97;;;4.60;;
6424;SDS011;12193;42.642;23.384;2024-01-30T16:19:15;9.93;;;4.53;;
6424;SDS011;12193;42.642;23.384;2024-01-30T16:21:44;7.10;;;4.50;;
6424;SDS011;12193;42.642;23.384;2024-01-30T16:24:14;10.00;;;5.07;;
6424;SDS011;12193;42.642;23.384;2024-01-30T16:26:43;10.13;;;4.60;;
6424;SDS011;12193;42.642;23.384;2024-01-30T16:29:13;13.37;;;4.73;;
6424;SDS011;12193;42.642;23.384;2024-01-30T16:31:44;12.10;;;5.10;;
6424;SDS011;12193;42.642;23.384;2024-01-30T16:34:13;11.00;;;4.97;;
6424;SDS011;12193;42.642;23.384;2024-01-30T16:36:42;9.37;;;4.60;;
6424;SDS011;12193;42.642;23.384;2024-01-30T16:39:12;11.67;;;5.17;;
6424;SDS011;12193;42.642;23.384;2024-01-30T16:41:41;14.13;;;5.20;;
6424;SDS011;12193;42.642;23.384;2024-01-30T16:44:10;11.57;;;5.30;;
6424;SDS011;12193;42.642;23.384;2024-01-30T16:46:39;15.43;;;5.40;;
6424;SDS011;12193;42.642;23.384;2024-01-30T16:49:11;10.73;;;5.03;;
6424;SDS011;12193;42.642;23.384;2024-01-30T16:51:40;13.20;;;5.17;;
6424;SDS011;12193;42.642;23.384;2024-01-30T16:54:10;14.20;;;5.63;;
6424;SDS011;12193;42.642;23.384;2024-01-30T16:56:39;12.90;;;5.60;;
6424;SDS011;12193;42.642;23.384;2024-01-30T16:59:13;14.47;;;6.40;;
6424;SDS011;12193;42.642;23.384;2024-01-30T17:01:43;13.03;;;6.37;;
6424;SDS011;12193;42.642;23.384;2024-01-30T17:04:17;17.97;;;6.43;;
6424;SDS011;12193;42.642;23.384;2024-01-30T17:06:47;11.87;;;5.63;;
6424;SDS011;12193;42.642;23.384;2024-01-30T17:09:17;13.33;;;6.30;;
6424;SDS011;12193;42.642;23.384;2024-01-30T17:11:47;14.70;;;6.43;;
6424;SDS011;12193;42.642;23.384;2024-01-30T17:14:16;14.00;;;6.00;;
6424;SDS011;12193;42.642;23.384;2024-01-30T17:16:45;17.40;;;7.37;;
6424;SDS011;12193;42.642;23.384;2024-01-30T17:19:19;14.33;;;7.17;;
6424;SDS011;12193;42.642;23.384;2024-01-30T17:21:48;17.97;;;7.23;;
6424;SDS011;12193;42.642;23.384;2024-01-30T17:24:17;13.57;;;6.47;;
6424;SDS011;12193;42.642;23.384;2024-01-30T17:26:46;14.17;;;6.70;;
6424;SDS011;12193;42.642;23.384;2024-01-30T17:29:15;19.53;;;7.90;;
6424;SDS011;12193;42.642;23.384;2024-01-30T17:31:45;19.77;;;8.70;;
6424;SDS011;12193;42.642;23.384;2024-01-30T17:34:15;16.13;;;8.43;;
6424;SDS011;12193;42.642;23.384;2024-01-30T17:36:49;13.40;;;6.50;;
6424;SDS011;12193;42.642;23.384;2024-01-30T17:39:20;13.67;;;6.50;;
6424;SDS011;12193;42.642;23.384;2024-01-30T17:41:49;12.00;;;6.57;;
6424;SDS011;12193;42.642;23.384;2024-01-30T17:44:19;16.27;;;6.80;;
6424;SDS011;12193;42.642;23.384;2024-01-30T17:46:48;17.37;;;7.37;;
6424;SDS011;12193;42.642;23.384;2024-01-30T17:49:22;13.90;;;6.33;;
6424;SDS011;12193;42.642;23.384;2024-01-30T17:51:55;13.60;;;6.70;;
6424;SDS011;12193;42.642;23.384;2024-01-30T17:54:24;17.73;;;7.03;;
6424;SDS011;12193;42.642;23.384;2024-01-30T17:56:53;12.97;;;6.33;;
6424;SDS011;12193;42.642;23.384;2024-01-30T17:59:22;12.73;;;6.43;;
6424;SDS011;12193;42.642;23.384;2024-01-30T18:01:51;17.80;;;7.07;;
6424;SDS011;12193;42.642;23.384;2024-01-30T18:04:23;17.07;;;6.67;;
6424;SDS011;12193;42.642;23.384;2024-01-30T18:06:53;13.77;;;6.80;;